DAUL/LOO METAR and TAF weather

Enter ICAO airport designator
Station Type Date Time Source
DAUL METAR 2024/07/13 01:00 UTC NOAA

DAUL 130100Z 21006KT 8000 SCT040 32/06 Q1014


Station Type Date Time Source
DAUL Decoded METAR 2024/07/13 01:00 UTC NOAA

Laghouat, Algeria (DAUL) 33-46N 002-56E 765M
Jul 12, 2024 - 09:00 PM EDT / 2024.07.13 0100 UTC
Wind: from the SSW (210 degrees) at 7 MPH (6 KT):0
Visibility: 4 mile(s):0
Sky conditions: partly cloudy
Temperature: 89 F (32 C)
Dew Point: 42 F (6 C)
Relative Humidity: 19%
Pressure (altimeter): 29.94 in. Hg (1014 hPa)
ob: DAUL 130100Z 21006KT 8000 SCT040 32/06 Q1014
cycle: 1

Station Type Date Time Source
DAUL TAF 2017/11/09 18:03 UTC NOAA